Overview Statistics Trail Chart Weather Telemetry Raw packets
 

This is the latest recevied weather packets stored in our database for station/object HOWARD. If no packets are shown the sender has not sent any weather packets the latest 10 day(s).

<< 20 21 22 23 24 25 26 >>
Time Temp. Humidity Pressure Rain* Wind** Luminosity Snow
1788351284 6.11° C 73% 1009 hPa 0 mm - - -
1788350684 7.22° C 73% 1008.9 hPa 0 mm - - -
1788350084 7.22° C 67% 1009 hPa 0 mm - - -
1788349484 8.89° C 56% 1008.7 hPa 0 mm - - -
1788348884 9.44° C 52% 1008.5 hPa 0 mm - - -
1788348284 9.44° C 56% 1008.3 hPa 0 mm - - -
1788347684 10° C 57% 1008.4 hPa 0 mm - - -
1788347084 9.44° C 61% 1008.2 hPa 0 mm - - -
1788346484 10° C 59% 1008.4 hPa 0 mm - - -
1788345884 10° C 58% 1008.4 hPa 0 mm - - -
1788345284 10° C 57% 1008.4 hPa 0 mm - - -
1788344684 10° C 55% 1008.4 hPa 0 mm - - -
1788344084 10.56° C - 1008.3 hPa 0 mm - - -
1788343554 10° C 57% 1008.3 hPa 0 mm - - -
1788343484 10° C 57% 1008.3 hPa 0 mm - - -
1788342884 10° C 58% 1008.4 hPa 0 mm - - -
1788342284 10.56° C 55% 1008.5 hPa 0 mm - - -
1788341684 10.56° C 54% 1008.5 hPa 0 mm - - -
1788341084 10.56° C 50% 1008.7 hPa 0 mm - - -
1788340484 10.56° C 51% 1008.8 hPa 0 mm - - -
1788339884 10.56° C 53% 1008.8 hPa 0 mm - - -
1788339285 10.56° C 50% 1008.8 hPa 0 mm - - -
1788338684 11.11° C 48% 1008.9 hPa 0 mm - - -
1788338084 10.56° C 47% 1008.8 hPa 0 mm - - -
1788337484 11.11° C 42% 1008.8 hPa 0 mm - - -

* Rain latest hour (hover to see other rain measurements)
** Current wind speed in m/s (hover to see current wind gust speed)